Airfield :
LOGIN :

Register | Disclaimer

   EN    FR    IT 

 










Legend :    VFR   Marginal VFR   IFR   Intensive IFR   Very Intensive IFR
Visi :
Ceiling :
>= 8 km
>= 3000ft
5 to 8 km
1000 to 3000 ft
1500m to 5 km
500 to 1000 ft
800 to 1500m
200 to 500 ft
< 800m
< 200 ft
Symbols :   Thunderstorms  Fog  Heavy snow  Heavy precipitations  Wind > 20 kt
SIGMETs :     Misc.  Thunderstorms  Icing  Turbulence  Mountain Waves  Volcanic Ashes







- Airport Elevation : 47 ft
- IATA code : BDS


LIBR - Casale Arpt. Brindisi

CURRENT METAR :
  • 160620Z VRB02KT CAVOK 26/22 Q1012

EXPIRED METARs :
  • 160550Z 33004KT CAVOK 25/23 Q1012
  • 160520Z 31003KT 280V350 8000 NSC 25/23 Q1012
  • 160450Z 29003KT 8000 NSC 24/22 Q1012
  • 160420Z 29004KT CAVOK 23/22 Q1012
  • 160350Z 29004KT CAVOK 23/21 Q1012

TAF TAF LIBR
Valid from the 16 at 06:00 until the 17 at 06:00 UTC


160500Z 1606/1706 VRB05KT CAVOK
BECMG 1608/1610 06012KT
BECMG 1618/1620 VRB05KT
No reported NOTAMs for that airfield.
1 SIGMET reported for the Brindisi FIR (LIBB) :
 
Severe turbulence
LIBB SIGMET 6 VALID 160400/160800 LIIB
LIBB BRINDISI FIR SEV TURB FCST N OF LINE N4117 E01420 - N4137 E01802 ABV FL260 STNR NC=



MET'MAP, your aeronautical weather chart ! - Copyright ORBIFLY December 2007 - Disclaimer

ORBIFLY MET'MAP TEAM :

Programming & Development : Alexandra Zaïnal
Concept & Development : Baudouin d'Aumeries
Co-Development & Prog : Marc-Olivier Méhu
Technical & hardware support : Manuel Goepfert

Contact : metmap@orbifly.com




SOURCES & CREDITS :

   NOAA